Colorado Springs, CO (80908)

12:19 AM MST on February 28, 2017 (GMT -0700)
BFBCC | | Change Station

Elev 7506 ft 39.02 °N, 104.70 °W | Updated 7 minutes ago

Clear
Clear
35.8 °F
Feels Like 32 °F
N
4.0
Wind Variable Wind from WSW
Gusts 12.0 mph

Today
High -- | Low -- °F
--% Chance of Precip.
Yesterday
High -- | Low -- °F
Precip. -- in
Pressure 29.51 in
Visibility 10.0 miles
Clouds Clear
Windchill 32 °F
Dew Point 14 °F
Humidity 41%
Rainfall 0.00 in
Snow Depth Not available.
6:32 AM 5:50 PM
Waxing Crescent, 4% visible
METAR KAFF 280658Z AUTO 25019G36KT 10SM CLR 06/M11 A2961 RMK AO2 PK WND 23039/20 SLP991 T00581115 401141080
Pressure 29.51 in
Visibility 10.0 miles
Clouds Clear
Windchill 32 °F
Dew Point 14 °F
Humidity 41%
Rainfall 0.00 in
Snow Depth Not available.
6:32 AM 5:50 PM
Waxing Crescent, 4% visible
METAR KAFF 280658Z AUTO 25019G36KT 10SM CLR 06/M11 A2961 RMK AO2 PK WND 23039/20 SLP991 T00581115 401141080

Get Your Daily Forecast Email!

Thanks for signing up!

Be on the lookout for a verification email in your inbox.

You'll start receiving the daily forecast at 8 AM.

×

10-Day Weather Forecast

Almanac

Astronomy

Feb. 28, 2017 Rise Set
Actual Time
Civil Twilight
Nautical Twilight
Astronomical Twilight
Moon
Length of Visible Light
Length of Day
Tomorrow will be .
, % of the Moon is Illuminated

Today's Extremes

State Highs State Lows

Community

WunderPhotos

Upload Photos

1,962,540 photos uploaded!

WunderBlog® & News

Nearby

Air Quality

  Air Quality AQ Index Pollutant
Not available.

Snow Depth

Station Depth Elevation

Earthquake Activity

City Distance Mag. Time & Date
Minimum magnitude displayed is 2.5.

Coastal Water Temperatures

Place Temperature

Stations

Nearby Weather Stations

Station Location Temp. Windchill Dew Point Humidity Wind Precip. Elev Updated Type
                   

Watches & Warnings

There are currently no watches in effect.